createdAt,value
2018-01-27T00:02:18.858Z,39.27
2018-01-27T00:04:48.189Z,39.10
2018-01-27T00:07:17.448Z,31.50
2018-01-27T00:09:46.666Z,38.67
2018-01-27T00:12:16.652Z,33.70
2018-01-27T00:14:46.099Z,32.73
2018-01-27T00:17:15.403Z,34.43
2018-01-27T00:19:44.607Z,33.93
2018-01-27T00:22:13.834Z,35.43
2018-01-27T00:24:43.058Z,32.30
2018-01-27T00:27:12.285Z,34.80
2018-01-27T00:29:42.259Z,29.50
2018-01-27T00:32:11.590Z,33.17
2018-01-27T00:34:41.622Z,36.23
2018-01-27T00:37:10.866Z,34.43
2018-01-27T00:39:40.118Z,31.50
2018-01-27T00:42:09.422Z,32.37
2018-01-27T00:44:38.651Z,32.67
2018-01-27T00:47:07.871Z,35.13
2018-01-27T00:49:37.282Z,36.43
2018-01-27T00:52:06.487Z,33.23
2018-01-27T00:54:35.698Z,35.17
2018-01-27T00:57:04.944Z,35.20
2018-01-27T00:59:34.138Z,35.37
2018-01-27T01:02:03.426Z,33.80
2018-01-27T01:04:32.651Z,31.80
2018-01-27T01:07:01.886Z,37.53
2018-01-27T01:09:31.996Z,31.33
2018-01-27T01:12:01.307Z,32.47
2018-01-27T01:14:31.476Z,33.00
2018-01-27T01:17:00.677Z,44.83
2018-01-27T01:19:29.923Z,37.43
2018-01-27T01:21:59.888Z,37.17
2018-01-27T01:24:29.441Z,40.10
2018-01-27T01:26:59.419Z,34.90
2018-01-27T01:29:30.176Z,33.07
2018-01-27T01:31:59.377Z,35.10
2018-01-27T01:34:29.363Z,34.17
2018-01-27T01:36:58.671Z,35.83
2018-01-27T01:39:28.046Z,33.63
2018-01-27T01:41:57.269Z,32.27
2018-01-27T01:44:26.538Z,29.90
2018-01-27T01:46:55.758Z,32.80
2018-01-27T01:49:24.961Z,35.40
2018-01-27T01:51:54.197Z,36.27
2018-01-27T01:54:24.263Z,33.30
2018-01-27T01:56:53.509Z,37.20
2018-01-27T01:59:22.707Z,39.80
2018-01-27T02:01:52.704Z,35.30
2018-01-27T02:04:22.872Z,35.60
2018-01-27T02:06:52.120Z,33.77
2018-01-27T02:09:21.389Z,35.33
2018-01-27T02:11:50.625Z,39.00
2018-01-27T02:14:20.602Z,32.30
2018-01-27T02:16:49.942Z,35.63
2018-01-27T02:19:19.122Z,39.50
2018-01-27T02:21:48.357Z,33.40
2018-01-27T02:24:17.616Z,34.23
2018-01-27T02:26:46.798Z,31.73
2018-01-27T02:29:16.262Z,42.93
2018-01-27T02:31:45.578Z,36.13
2018-01-27T02:34:14.940Z,46.27
2018-01-27T02:36:44.932Z,34.60
2018-01-27T02:39:14.213Z,34.67
2018-01-27T02:41:43.601Z,40.50
2018-01-27T02:44:12.839Z,36.37
2018-01-27T02:46:42.087Z,32.83
2018-01-27T02:49:11.427Z,38.20
2018-01-27T02:51:40.652Z,32.70
2018-01-27T02:54:10.626Z,37.73
2018-01-27T02:56:39.839Z,33.63
2018-01-27T02:59:09.822Z,36.63
2018-01-27T03:01:39.019Z,34.30
2018-01-27T03:04:08.447Z,36.47
2018-01-27T03:06:37.755Z,37.17
2018-01-27T03:09:07.025Z,41.70
2018-01-27T03:11:36.255Z,38.40
2018-01-27T03:14:05.445Z,36.60
2018-01-27T03:16:34.681Z,39.73
2018-01-27T03:19:04.668Z,34.93
2018-01-27T03:21:34.019Z,33.40
2018-01-27T03:24:03.262Z,35.57
2018-01-27T03:26:32.530Z,34.73
2018-01-27T03:29:01.826Z,44.77
2018-01-27T03:31:31.022Z,36.37
2018-01-27T03:34:00.994Z,41.13
2018-01-27T03:36:30.268Z,34.73
2018-01-27T03:39:00.317Z,40.87
2018-01-27T03:41:30.527Z,41.57
2018-01-27T03:43:59.758Z,38.17
2018-01-27T03:46:28.959Z,36.70
2018-01-27T03:48:58.372Z,35.17
2018-01-27T03:51:27.805Z,37.00
2018-01-27T03:53:57.015Z,36.67
2018-01-27T03:56:26.239Z,37.10
2018-01-27T03:58:56.190Z,37.40
2018-01-27T04:01:25.450Z,39.53
2018-01-27T04:03:54.633Z,41.33
2018-01-27T04:06:23.830Z,36.50
2018-01-27T04:08:53.039Z,36.63
2018-01-27T04:11:22.322Z,38.07
2018-01-27T04:13:51.523Z,36.67
2018-01-27T04:16:20.746Z,35.70
2018-01-27T04:18:50.002Z,35.37
2018-01-27T04:21:19.679Z,39.70
2018-01-27T04:23:48.872Z,34.67
2018-01-27T04:26:18.133Z,40.53
2018-01-27T04:28:48.102Z,42.00
2018-01-27T04:31:17.356Z,44.47
2018-01-27T04:33:47.417Z,36.80
2018-01-27T04:36:16.611Z,33.20
2018-01-27T04:38:45.829Z,38.83
2018-01-27T04:41:15.045Z,35.33
2018-01-27T04:43:45.045Z,39.00
2018-01-27T04:46:14.286Z,38.77
2018-01-27T04:48:43.586Z,36.57
2018-01-27T04:51:13.585Z,39.73
2018-01-27T04:53:43.773Z,44.23
2018-01-27T04:56:12.977Z,40.33
2018-01-27T04:58:42.242Z,37.50
2018-01-27T05:01:11.501Z,38.37
2018-01-27T05:03:41.635Z,39.93
2018-01-27T05:06:10.830Z,37.73
2018-01-27T05:08:40.839Z,41.73
2018-01-27T05:11:10.835Z,42.23
2018-01-27T05:13:40.030Z,37.77
2018-01-27T05:16:10.194Z,42.70
2018-01-27T05:18:39.411Z,40.23
2018-01-27T05:21:09.633Z,43.47
2018-01-27T05:23:38.846Z,44.67
2018-01-27T05:26:08.233Z,37.33
2018-01-27T05:28:37.466Z,45.43
2018-01-27T05:31:06.698Z,48.13
2018-01-27T05:33:36.163Z,47.53
2018-01-27T05:36:05.359Z,48.30
2018-01-27T05:38:34.673Z,48.00
2018-01-27T05:41:03.857Z,48.70
2018-01-27T05:43:33.074Z,49.03
2018-01-27T05:46:03.050Z,43.40
2018-01-27T05:48:32.430Z,56.37
2018-01-27T05:51:01.633Z,49.53
2018-01-27T05:53:30.858Z,49.77
2018-01-27T05:56:00.112Z,59.33
2018-01-27T05:58:29.322Z,51.33
2018-01-27T06:00:58.534Z,56.67
2018-01-27T06:03:27.790Z,50.23
2018-01-27T06:05:57.014Z,45.30
2018-01-27T06:08:26.248Z,49.73
2018-01-27T06:10:56.439Z,53.13
2018-01-27T06:13:25.649Z,48.17
2018-01-27T06:15:54.870Z,55.00
2018-01-27T06:18:25.619Z,51.33
2018-01-27T06:20:55.782Z,46.87
2018-01-27T06:23:24.982Z,56.57
2018-01-27T06:25:54.251Z,43.17
2018-01-27T06:28:24.253Z,43.80
2018-01-27T06:30:54.270Z,49.10
2018-01-27T06:33:23.432Z,45.40
2018-01-27T06:35:52.767Z,52.50
2018-01-27T06:38:21.968Z,47.93
2018-01-27T06:40:51.941Z,48.03
2018-01-27T06:43:21.173Z,38.37
2018-01-27T06:45:51.151Z,49.40
2018-01-27T06:48:20.375Z,48.50
2018-01-27T06:50:49.591Z,48.20
2018-01-27T06:53:18.853Z,56.13
2018-01-27T06:55:48.129Z,48.27
2018-01-27T06:58:17.350Z,49.53
2018-01-27T07:00:46.569Z,48.53
2018-01-27T07:03:15.750Z,49.00
2018-01-27T07:05:44.973Z,48.83
2018-01-27T07:08:14.229Z,51.33
2018-01-27T07:10:43.448Z,52.93
2018-01-27T07:13:13.429Z,53.07
2018-01-27T07:15:42.775Z,51.50
2018-01-27T07:18:12.023Z,49.97
2018-01-27T07:20:41.239Z,53.43
2018-01-27T07:23:10.850Z,49.30
2018-01-27T07:25:40.056Z,50.87
2018-01-27T07:28:09.274Z,50.60
2018-01-27T07:30:39.254Z,52.03
2018-01-27T07:33:08.468Z,53.73
2018-01-27T07:35:37.681Z,56.00
2018-01-27T07:38:06.912Z,57.43
2018-01-27T07:40:36.207Z,58.03
2018-01-27T07:43:05.418Z,57.73
2018-01-27T07:45:34.644Z,57.80
2018-01-27T07:48:03.866Z,55.53
2018-01-27T07:50:33.782Z,54.73
2018-01-27T07:53:03.099Z,55.10
2018-01-27T07:55:32.337Z,64.00
2018-01-27T07:58:01.548Z,53.43
2018-01-27T08:00:30.794Z,58.30
2018-01-27T08:03:00.778Z,58.70
2018-01-27T08:05:30.356Z,57.77
2018-01-27T08:07:59.566Z,52.90
2018-01-27T08:10:28.775Z,54.03
2018-01-27T08:12:57.991Z,57.93
2018-01-27T08:15:27.199Z,55.17
2018-01-27T08:17:56.538Z,50.63
2018-01-27T08:20:26.514Z,59.40
2018-01-27T08:22:57.237Z,53.00
2018-01-27T08:25:27.222Z,50.10
2018-01-27T08:27:56.513Z,64.30
2018-01-27T08:30:25.761Z,59.30
2018-01-27T08:32:54.987Z,60.90
2018-01-27T08:35:24.197Z,66.03
2018-01-27T08:37:53.427Z,52.00
2018-01-27T08:40:24.198Z,53.83
2018-01-27T08:42:54.225Z,50.10
2018-01-27T08:45:23.495Z,48.47
2018-01-27T08:47:53.466Z,58.00
2018-01-27T08:50:22.804Z,49.03
2018-01-27T08:52:52.132Z,55.17
2018-01-27T08:55:21.414Z,46.00
2018-01-27T08:57:50.607Z,48.33
2018-01-27T09:00:19.827Z,45.47
2018-01-27T09:02:49.038Z,47.60
2018-01-27T09:05:18.342Z,48.43
2018-01-27T09:07:47.562Z,51.00
2018-01-27T09:10:16.860Z,49.83
2018-01-27T09:12:46.084Z,54.87
2018-01-27T09:15:16.810Z,45.60
2018-01-27T09:17:46.086Z,56.60
2018-01-27T09:20:15.303Z,49.10
2018-01-27T09:22:44.705Z,54.60
2018-01-27T09:25:15.000Z,57.50
2018-01-27T09:27:44.177Z,50.20
2018-01-27T09:30:14.206Z,48.03
2018-01-27T09:32:43.431Z,58.67
2018-01-27T09:35:12.703Z,49.70
2018-01-27T09:37:41.974Z,51.93
2018-01-27T09:40:11.179Z,50.83
2018-01-27T09:42:41.179Z,52.90
2018-01-27T09:45:10.666Z,48.50
2018-01-27T09:47:39.953Z,45.13
2018-01-27T09:50:09.171Z,45.83
2018-01-27T09:52:38.405Z,47.00
2018-01-27T09:55:07.672Z,52.67
2018-01-27T09:57:36.889Z,44.53
2018-01-27T10:00:09.356Z,39.23
2018-01-27T10:02:38.581Z,42.47
2018-01-27T10:05:07.854Z,44.10
2018-01-27T10:07:37.018Z,45.10
2018-01-27T10:10:06.239Z,42.60
2018-01-27T10:12:35.602Z,45.03
2018-01-27T10:15:04.818Z,47.03
2018-01-27T10:17:34.042Z,43.37
2018-01-27T10:20:04.093Z,46.93
2018-01-27T10:22:33.347Z,49.97
2018-01-27T10:25:02.700Z,48.27
2018-01-27T10:27:32.005Z,42.77
2018-01-27T10:30:01.224Z,42.87
2018-01-27T10:32:31.155Z,53.67
2018-01-27T10:35:00.364Z,50.20
2018-01-27T10:37:30.371Z,50.87
2018-01-27T10:40:00.394Z,53.00
2018-01-27T10:42:29.601Z,49.73
2018-01-27T10:44:59.586Z,43.77
2018-01-27T10:47:28.862Z,50.30
2018-01-27T10:49:58.127Z,49.67
2018-01-27T10:52:27.379Z,46.63
2018-01-27T10:54:56.615Z,44.83
2018-01-27T10:57:25.843Z,41.63
2018-01-27T10:59:55.081Z,42.33
2018-01-27T11:02:24.316Z,39.70
2018-01-27T11:04:54.676Z,39.87
2018-01-27T11:07:23.877Z,40.17
2018-01-27T11:09:53.116Z,40.00
2018-01-27T11:12:22.401Z,41.07
2018-01-27T11:14:51.615Z,36.07
2018-01-27T11:17:21.599Z,37.80
2018-01-27T11:19:50.843Z,39.50
2018-01-27T11:22:20.062Z,45.87
2018-01-27T11:24:49.288Z,41.57
2018-01-27T11:27:18.561Z,51.20
2018-01-27T11:29:48.566Z,37.60
2018-01-27T11:32:17.993Z,38.83
2018-01-27T11:34:47.191Z,37.47
2018-01-27T11:37:16.422Z,39.50
2018-01-27T11:39:45.715Z,32.07
2018-01-27T11:42:15.893Z,33.20
2018-01-27T11:44:45.984Z,36.80
2018-01-27T11:47:17.032Z,38.50
2018-01-27T11:49:47.076Z,33.90
2018-01-27T11:52:16.411Z,33.73
2018-01-27T11:54:46.440Z,37.20
2018-01-27T11:57:16.478Z,32.30
2018-01-27T11:59:46.472Z,30.00
2018-01-27T12:02:15.721Z,35.93
2018-01-27T12:04:44.972Z,34.40
2018-01-27T12:07:14.280Z,36.50
2018-01-27T12:09:43.586Z,33.03
2018-01-27T12:12:12.970Z,39.30
2018-01-27T12:14:42.211Z,35.53
2018-01-27T12:17:11.443Z,32.57
2018-01-27T12:19:40.675Z,36.33
2018-01-27T12:22:10.668Z,28.97
2018-01-27T12:24:39.918Z,37.40
2018-01-27T12:27:09.231Z,33.43
2018-01-27T12:29:38.688Z,29.30
2018-01-27T12:32:09.519Z,34.93
2018-01-27T12:34:38.930Z,35.17
2018-01-27T12:37:08.907Z,41.20
2018-01-27T12:39:38.185Z,41.50
2018-01-27T12:42:07.399Z,38.23
2018-01-27T12:44:36.651Z,40.43
2018-01-27T12:47:06.706Z,28.37
2018-01-27T12:49:35.940Z,37.70
2018-01-27T12:52:05.271Z,33.33
2018-01-27T12:54:34.524Z,33.13
2018-01-27T12:57:03.911Z,35.80
2018-01-27T12:59:33.203Z,34.10
2018-01-27T13:02:02.413Z,30.20
2018-01-27T13:04:31.614Z,31.07
2018-01-27T13:07:00.827Z,28.03
2018-01-27T13:09:30.090Z,28.10
2018-01-27T13:11:59.316Z,25.30
2018-01-27T13:14:30.069Z,23.73
2018-01-27T13:16:59.272Z,26.07
2018-01-27T13:19:29.290Z,31.10
2018-01-27T13:21:58.535Z,30.17
2018-01-27T13:24:27.764Z,27.37
2018-01-27T13:26:56.985Z,27.37
2018-01-27T13:29:27.035Z,26.33
2018-01-27T13:31:56.286Z,28.90
2018-01-27T13:34:25.514Z,23.00
2018-01-27T13:36:55.506Z,24.00
2018-01-27T13:39:26.271Z,27.43
2018-01-27T13:41:55.536Z,25.70
2018-01-27T13:44:26.284Z,20.67
2018-01-27T13:46:56.288Z,31.40
2018-01-27T13:49:25.530Z,26.57
2018-01-27T13:51:54.727Z,26.30
2018-01-27T13:54:23.973Z,26.17
2018-01-27T13:56:53.202Z,26.73
2018-01-27T13:59:22.584Z,27.13
2018-01-27T14:01:52.687Z,30.80
2018-01-27T14:04:21.931Z,30.00
2018-01-27T14:06:51.129Z,26.30
2018-01-27T14:09:20.343Z,26.80
2018-01-27T14:11:49.641Z,24.87
2018-01-27T14:14:18.858Z,23.77
2018-01-27T14:16:48.110Z,30.63
2018-01-27T14:19:17.319Z,29.80
2018-01-27T14:21:46.576Z,28.93
2018-01-27T14:24:15.847Z,27.07
2018-01-27T14:26:45.066Z,27.20
2018-01-27T14:29:14.299Z,23.87
2018-01-27T14:31:43.540Z,27.60
2018-01-27T14:34:12.743Z,25.67
2018-01-27T14:36:41.995Z,25.37
2018-01-27T14:39:11.206Z,31.40
2018-01-27T14:41:40.445Z,29.93
2018-01-27T14:44:09.653Z,27.93
2018-01-27T14:46:39.120Z,25.47
2018-01-27T14:49:08.343Z,25.03
2018-01-27T14:51:37.537Z,25.63
2018-01-27T14:54:06.786Z,23.43
2018-01-27T14:56:35.990Z,23.93
2018-01-27T14:59:05.262Z,25.00
2018-01-27T15:01:34.551Z,21.10
2018-01-27T15:04:03.783Z,26.83
2018-01-27T15:06:33.026Z,26.60
2018-01-27T15:09:02.223Z,23.37
2018-01-27T15:11:31.453Z,25.47
2018-01-27T15:14:00.810Z,25.33
2018-01-27T15:16:30.330Z,24.77
2018-01-27T15:18:59.566Z,24.90
2018-01-27T15:21:28.805Z,27.67
2018-01-27T15:23:58.109Z,23.70
2018-01-27T15:26:27.340Z,23.47
2018-01-27T15:28:59.390Z,26.27
2018-01-27T15:31:28.667Z,22.67
2018-01-27T15:33:57.911Z,28.47
2018-01-27T15:36:27.148Z,29.23
2018-01-27T15:38:56.907Z,29.20
2018-01-27T15:41:26.111Z,26.33
2018-01-27T15:43:55.360Z,27.73
2018-01-27T15:46:24.838Z,22.33
2018-01-27T15:48:54.034Z,24.47
2018-01-27T15:51:24.919Z,26.13
2018-01-27T15:53:54.203Z,22.90
2018-01-27T15:56:23.614Z,31.90
2018-01-27T15:58:52.829Z,22.03
2018-01-27T16:01:22.091Z,29.17
2018-01-27T16:03:51.408Z,25.83
2018-01-27T16:06:20.600Z,23.30
2018-01-27T16:08:49.822Z,23.90
2018-01-27T16:11:19.051Z,24.90
2018-01-27T16:13:49.044Z,25.03
2018-01-27T16:16:18.478Z,25.17
2018-01-27T16:18:47.722Z,29.50
2018-01-27T16:21:16.964Z,28.03
2018-01-27T16:23:46.843Z,31.77
2018-01-27T16:26:16.103Z,24.20
2018-01-27T16:28:45.356Z,26.50
2018-01-27T16:31:14.574Z,26.87
2018-01-27T16:33:43.836Z,25.70
2018-01-27T16:36:14.552Z,26.40
2018-01-27T16:38:46.875Z,25.60
2018-01-27T16:41:17.131Z,22.87
2018-01-27T16:43:46.364Z,26.03
2018-01-27T16:46:15.605Z,24.93
2018-01-27T16:48:44.846Z,25.00
2018-01-27T16:51:14.061Z,27.87
2018-01-27T16:53:45.206Z,24.27
2018-01-27T16:56:14.551Z,28.37
2018-01-27T16:58:43.789Z,22.30
2018-01-27T17:01:13.026Z,26.70
2018-01-27T17:03:42.292Z,27.67
2018-01-27T17:06:11.524Z,24.27
2018-01-27T17:08:41.518Z,25.90
2018-01-27T17:11:10.839Z,22.83
2018-01-27T17:13:40.853Z,27.37
2018-01-27T17:16:10.158Z,26.17
2018-01-27T17:18:40.691Z,24.60
2018-01-27T17:21:10.681Z,25.87
2018-01-27T17:23:39.944Z,21.33
2018-01-27T17:26:09.543Z,27.73
2018-01-27T17:28:38.775Z,20.30
2018-01-27T17:31:08.006Z,22.30
2018-01-27T17:33:37.283Z,19.83
2018-01-27T17:36:07.300Z,28.10
2018-01-27T17:38:36.542Z,18.87
2018-01-27T17:41:05.776Z,22.80
2018-01-27T17:43:35.082Z,19.30
2018-01-27T17:46:04.296Z,21.73
2018-01-27T17:48:33.513Z,20.37
2018-01-27T17:51:03.569Z,19.23
2018-01-27T17:53:32.777Z,17.90
2018-01-27T17:56:02.086Z,14.33
2018-01-27T17:58:31.394Z,19.13
2018-01-27T18:01:00.676Z,17.47
2018-01-27T18:03:29.891Z,14.63
2018-01-27T18:05:59.889Z,14.47
2018-01-27T18:08:30.128Z,16.33
2018-01-27T18:10:59.372Z,19.73
2018-01-27T18:13:29.363Z,15.30
2018-01-27T18:15:58.547Z,15.73
2018-01-27T18:18:27.786Z,18.83
2018-01-27T18:20:57.003Z,15.30
2018-01-27T18:23:26.246Z,14.73
2018-01-27T18:25:56.166Z,17.43
2018-01-27T18:28:25.399Z,17.30
2018-01-27T18:30:54.761Z,16.80
2018-01-27T18:33:24.044Z,15.03
2018-01-27T18:35:53.301Z,17.83
2018-01-27T18:38:23.271Z,15.10
2018-01-27T18:40:53.264Z,14.57
2018-01-27T18:43:22.582Z,15.77
2018-01-27T18:45:51.791Z,14.80
2018-01-27T18:48:21.003Z,12.47
2018-01-27T18:50:50.247Z,12.83
2018-01-27T18:53:19.500Z,17.90
2018-01-27T18:55:48.763Z,15.83
2018-01-27T18:58:18.008Z,23.83
2018-01-27T19:00:47.276Z,13.47
2018-01-27T19:03:16.613Z,12.80
2018-01-27T19:05:46.011Z,17.70
2018-01-27T19:08:15.976Z,12.40
2018-01-27T19:10:45.214Z,15.37
2018-01-27T19:13:14.423Z,10.60
2018-01-27T19:15:43.650Z,13.20
2018-01-27T19:18:12.901Z,17.13
2018-01-27T19:20:43.700Z,10.43
2018-01-27T19:23:12.974Z,10.27
2018-01-27T19:25:42.211Z,10.70
2018-01-27T19:28:11.467Z,13.50
2018-01-27T19:30:40.689Z,10.30
2018-01-27T19:33:09.944Z,10.27
2018-01-27T19:35:39.978Z,10.20
2018-01-27T19:38:09.230Z,10.23
2018-01-27T19:40:38.687Z,10.40
2018-01-27T19:43:07.919Z,11.57
2018-01-27T19:45:37.129Z,8.43
2018-01-27T19:48:07.121Z,9.73
2018-01-27T19:50:36.328Z,8.47
2018-01-27T19:53:05.552Z,8.43
2018-01-27T19:55:35.521Z,6.53
2018-01-27T19:58:04.768Z,11.07
2018-01-27T20:00:33.996Z,8.10
2018-01-27T20:03:03.303Z,9.97
2018-01-27T20:05:32.539Z,8.13
2018-01-27T20:08:01.758Z,7.50
2018-01-27T20:10:31.093Z,8.50
2018-01-27T20:13:00.293Z,11.60
2018-01-27T20:15:29.524Z,12.83
2018-01-27T20:17:58.863Z,6.40
2018-01-27T20:20:28.963Z,8.83
2018-01-27T20:22:58.189Z,8.33
2018-01-27T20:25:27.434Z,7.33
2018-01-27T20:27:56.614Z,6.57
2018-01-27T20:30:25.857Z,7.60
2018-01-27T20:32:56.077Z,6.40
2018-01-27T20:35:25.357Z,8.50
2018-01-27T20:37:54.517Z,7.97
2018-01-27T20:40:23.751Z,6.17
2018-01-27T20:42:52.992Z,7.80
2018-01-27T20:45:22.275Z,9.20
2018-01-27T20:47:52.254Z,8.10
2018-01-27T20:50:21.784Z,7.87
2018-01-27T20:52:50.989Z,7.07
2018-01-27T20:55:21.007Z,8.13
2018-01-27T20:57:50.250Z,7.33
2018-01-27T21:00:19.462Z,6.53
2018-01-27T21:02:48.757Z,12.40
2018-01-27T21:05:17.999Z,8.00
2018-01-27T21:07:48.039Z,12.07
2018-01-27T21:10:18.111Z,7.50
2018-01-27T21:12:47.385Z,6.90
2018-01-27T21:15:16.771Z,9.20
2018-01-27T21:17:46.051Z,7.13
2018-01-27T21:20:15.358Z,6.43
2018-01-27T21:22:44.606Z,8.50
2018-01-27T21:25:13.970Z,9.37
2018-01-27T21:27:43.309Z,6.80
2018-01-27T21:30:12.524Z,8.80
2018-01-27T21:32:43.271Z,10.37
2018-01-27T21:35:12.581Z,7.87
2018-01-27T21:37:41.818Z,7.13
2018-01-27T21:40:11.187Z,10.53
2018-01-27T21:42:40.534Z,6.90
2018-01-27T21:45:09.869Z,13.30
2018-01-27T21:47:39.096Z,8.23
2018-01-27T21:50:08.310Z,10.23
2018-01-27T21:52:37.692Z,7.50
2018-01-27T21:55:07.919Z,9.30
2018-01-27T21:57:37.190Z,8.10
2018-01-27T22:00:06.429Z,8.03
2018-01-27T22:02:35.615Z,10.50
2018-01-27T22:05:05.067Z,7.87
2018-01-27T22:07:34.289Z,6.63
2018-01-27T22:10:03.512Z,8.00
2018-01-27T22:12:34.396Z,8.70
2018-01-27T22:15:03.608Z,8.53
2018-01-27T22:17:33.624Z,7.37
2018-01-27T22:20:03.597Z,9.03
2018-01-27T22:22:32.869Z,10.17
2018-01-27T22:25:02.527Z,7.83
2018-01-27T22:27:32.522Z,9.63
2018-01-27T22:30:01.821Z,6.00
2018-01-27T22:32:31.034Z,6.60
2018-01-27T22:35:00.302Z,5.47
2018-01-27T22:37:29.496Z,5.57
2018-01-27T22:39:58.734Z,6.13
2018-01-27T22:42:27.976Z,6.57
2018-01-27T22:44:58.124Z,8.83
2018-01-27T22:47:27.354Z,4.57
2018-01-27T22:49:58.113Z,5.40
2018-01-27T22:52:28.114Z,6.87
2018-01-27T22:54:57.344Z,5.80
2018-01-27T22:57:26.641Z,9.67
2018-01-27T22:59:55.854Z,5.40
2018-01-27T23:02:25.093Z,6.27
2018-01-27T23:04:54.297Z,5.63
2018-01-27T23:07:23.544Z,4.77
2018-01-27T23:09:52.746Z,6.50
2018-01-27T23:12:22.293Z,6.70
2018-01-27T23:14:51.621Z,6.80
2018-01-27T23:17:21.612Z,5.67
2018-01-27T23:19:50.899Z,4.47
2018-01-27T23:22:20.145Z,7.10
2018-01-27T23:24:49.442Z,5.83
2018-01-27T23:27:18.715Z,5.30
2018-01-27T23:29:48.795Z,6.90
2018-01-27T23:32:18.038Z,6.60
2018-01-27T23:34:47.558Z,7.30
2018-01-27T23:37:17.047Z,5.80
2018-01-27T23:39:47.227Z,10.17
2018-01-27T23:42:16.529Z,11.30
2018-01-27T23:44:45.790Z,5.10
2018-01-27T23:47:15.103Z,6.37
2018-01-27T23:49:44.345Z,6.70
2018-01-27T23:52:13.669Z,4.40
2018-01-27T23:54:43.643Z,8.47
2018-01-27T23:57:12.934Z,6.80
2018-01-27T23:59:42.236Z,8.33
